Abingdon, VA

12:30 PM EDT am 27. März 2017 (GMT -0400)
Country Club Estates | | Change Station

Höhe 1990 ft 36.69 °N, 81.97 °W | Updated 3 seconds ago

Wolkig
Wolkig
69.9 °F
gefühlte 69.9 °F
N
8.1
Wind Wechselnd Wind aus West-Südwest
Gusts 8.1 mph

Heute
Max. -- | schwach -- °F
--% Regenrisiko
Gestern
Max. -- | schwach -- °F
Precip. -- inch
Druck 30.09 inch
Sichtweite 10.0 Meilen
Wolken Wolkig 3400 ft
Wolkig 4400 ft
Taupunkt 57 °F
Feuchtigkeit 64%
Regen 0.00 inch
Schneehöhe Nicht verfügbar..
7:20 AM 7:46 PM
Letztes Viertel, 0% visible
METAR KVJI 271615Z AUTO 28010KT 10SM BKN034 BKN044 22/13 A3009 RMK AO2 T02180132
Druck 30.09 inch
Sichtweite 10.0 Meilen
Wolken Wolkig 3400 ft
Wolkig 4400 ft
Taupunkt 57 °F
Feuchtigkeit 64%
Regen 0.00 inch
Schneehöhe Nicht verfügbar..
7:20 AM 7:46 PM
Letztes Viertel, 0% visible
METAR KVJI 271615Z AUTO 28010KT 10SM BKN034 BKN044 22/13 A3009 RMK AO2 T02180132

Get Severe Weather Alerts

Thanks for signing up!

Be on the lookout for a verification email in your inbox.

You'll start receiving the daily forecast at 8 AM.

×

10-Day Weather Forecast

Almanac

Astronomie

Mar. 27, 2017 Aufgang Untergang
Genaue Zeit
Bürgerliche Dämmerung
Nautische Dämmerung
Astronomische Dämmerung
Mond
Länge des sichtbaren Lichts
Tageslänge
Tomorrow will be .
, % of the Moon is Illuminated

Heutige Rekorde

State Highs State Lows

Community

WunderPhotos

Upload Photos

1,962,540 Fotos hochgeladen!

WunderBlog® & News

Nearby

Luftqualität

  Luftqualität LQ Index Schadstoff
Not available.

Schneehöhe

Station Depth Höhe

Erdbebenaktivität

Stadt Distance Mag. Time & Date
Minimum magnitude displayed is 2.5.

Erdbebenaktivität

Stadt Distance Mag. Time & Date
Minimum magnitude displayed is 2.5.

küstennahe Wassertemperaturen

Ort Temperatur

Stations

Wetterstationen in der Umgebung

Stationsstandort Temp. Windchill Taupunkt Feuchtigkeit Wind Precip. Höhe Aktualisiert Art
                   

Watches & Warnings

There are currently no watches in effect.